Key West, Iowa
Current Conditions -  °F | °C
As of 6:53 AM on Friday 28 Nov 2014 (Local Time) from KDBQ Reporting Station
Few Clouds Few Clouds  
Wind Chill:   Ceiling: Unl
Heat Index: 15°   Visibility: 10mi
Dew Point:   Wind: 14mph
Humidity: 77%   Direction: 150°SSE
Pressure: 30.13"   Gusts: NA
Location:  42.549°N, 90.6988°W
Report Text: KDBQ 281253Z 15012KT 10SM FEW120 M09/M13 A3013 RMK AO2 SLP227 T10941128
Loading
Personal Weather Stations






























Interactive Weather Map New forecast layout! Learn more

10-Day Weather Forecast

Advertisements
Track Severe Weather on mobile